sensor_id;sensor_type;location;lat;lon;timestamp;temperature;humidity
46438;DHT22;32137;48.728;9.142;2023-02-28T00:00:14;-1.30;99.90
46438;DHT22;32137;48.728;9.142;2023-02-28T00:02:41;-1.30;99.90
46438;DHT22;32137;48.728;9.142;2023-02-28T00:05:08;-1.30;99.90
46438;DHT22;32137;48.728;9.142;2023-02-28T00:07:35;-1.40;99.90
46438;DHT22;32137;48.728;9.142;2023-02-28T00:10:01;-1.40;99.90
46438;DHT22;32137;48.728;9.142;2023-02-28T00:12:28;-1.40;99.90
46438;DHT22;32137;48.728;9.142;2023-02-28T00:14:53;-1.40;99.90
46438;DHT22;32137;48.728;9.142;2023-02-28T00:17:19;-1.50;99.90
46438;DHT22;32137;48.728;9.142;2023-02-28T00:19:50;-1.50;99.90
46438;DHT22;32137;48.728;9.142;2023-02-28T00:22:17;-1.50;99.90
46438;DHT22;32137;48.728;9.142;2023-02-28T00:24:43;-1.50;99.90
46438;DHT22;32137;48.728;9.142;2023-02-28T00:27:09;-1.50;99.90
46438;DHT22;32137;48.728;9.142;2023-02-28T00:29:35;-1.50;99.90
46438;DHT22;32137;48.728;9.142;2023-02-28T00:32:01;-1.50;99.90
46438;DHT22;32137;48.728;9.142;2023-02-28T00:34:26;-1.60;99.90
46438;DHT22;32137;48.728;9.142;2023-02-28T00:36:52;-1.60;99.90
46438;DHT22;32137;48.728;9.142;2023-02-28T00:39:18;-1.60;99.90
46438;DHT22;32137;48.728;9.142;2023-02-28T00:41:43;-1.60;99.90
46438;DHT22;32137;48.728;9.142;2023-02-28T00:44:09;-1.60;99.90
46438;DHT22;32137;48.728;9.142;2023-02-28T00:46:34;-1.60;99.90
46438;DHT22;32137;48.728;9.142;2023-02-28T00:49:00;-1.60;99.90
46438;DHT22;32137;48.728;9.142;2023-02-28T00:51:26;-1.70;99.90
46438;DHT22;32137;48.728;9.142;2023-02-28T00:53:51;-1.70;99.90
46438;DHT22;32137;48.728;9.142;2023-02-28T00:56:17;-1.70;99.90
46438;DHT22;32137;48.728;9.142;2023-02-28T00:58:42;-1.70;99.90
46438;DHT22;32137;48.728;9.142;2023-02-28T01:01:08;-1.70;99.90
46438;DHT22;32137;48.728;9.142;2023-02-28T01:03:33;-1.70;99.90
46438;DHT22;32137;48.728;9.142;2023-02-28T01:05:59;-1.70;99.90
46438;DHT22;32137;48.728;9.142;2023-02-28T01:08:25;-1.70;99.90
46438;DHT22;32137;48.728;9.142;2023-02-28T01:10:51;-1.70;99.90
46438;DHT22;32137;48.728;9.142;2023-02-28T01:13:17;-1.70;99.90
46438;DHT22;32137;48.728;9.142;2023-02-28T01:15:50;-1.70;99.90
46438;DHT22;32137;48.728;9.142;2023-02-28T01:18:16;-1.70;99.90
46438;DHT22;32137;48.728;9.142;2023-02-28T01:20:42;-1.70;99.90
46438;DHT22;32137;48.728;9.142;2023-02-28T01:23:08;-1.70;99.90
46438;DHT22;32137;48.728;9.142;2023-02-28T01:25:37;-1.70;99.90
46438;DHT22;32137;48.728;9.142;2023-02-28T01:28:03;-1.70;99.90
46438;DHT22;32137;48.728;9.142;2023-02-28T01:30:28;-1.80;99.90
46438;DHT22;32137;48.728;9.142;2023-02-28T01:32:54;-1.80;99.90
46438;DHT22;32137;48.728;9.142;2023-02-28T01:35:20;-1.80;99.90
46438;DHT22;32137;48.728;9.142;2023-02-28T01:37:45;-1.80;99.90
46438;DHT22;32137;48.728;9.142;2023-02-28T01:40:12;-1.80;99.90
46438;DHT22;32137;48.728;9.142;2023-02-28T01:42:38;-1.80;99.90
46438;DHT22;32137;48.728;9.142;2023-02-28T01:45:20;-1.80;99.90
46438;DHT22;32137;48.728;9.142;2023-02-28T01:47:48;-1.80;99.90
46438;DHT22;32137;48.728;9.142;2023-02-28T01:50:19;-1.80;99.90
46438;DHT22;32137;48.728;9.142;2023-02-28T01:52:47;-1.80;99.90
46438;DHT22;32137;48.728;9.142;2023-02-28T01:55:15;-1.80;99.90
46438;DHT22;32137;48.728;9.142;2023-02-28T01:57:46;-1.80;99.90
46438;DHT22;32137;48.728;9.142;2023-02-28T02:00:15;-1.80;99.90
46438;DHT22;32137;48.728;9.142;2023-02-28T02:02:43;-1.80;99.90
46438;DHT22;32137;48.728;9.142;2023-02-28T02:05:15;-1.80;99.90
46438;DHT22;32137;48.728;9.142;2023-02-28T02:07:43;-1.80;99.90
46438;DHT22;32137;48.728;9.142;2023-02-28T02:10:24;-1.80;99.90
46438;DHT22;32137;48.728;9.142;2023-02-28T02:13:10;-1.80;99.90
46438;DHT22;32137;48.728;9.142;2023-02-28T02:18:33;-1.80;99.90
46438;DHT22;32137;48.728;9.142;2023-02-28T02:24:33;-1.80;99.90
46438;DHT22;32137;48.728;9.142;2023-02-28T02:27:28;-1.80;99.90
46438;DHT22;32137;48.728;9.142;2023-02-28T02:37:48;-1.70;99.90
46438;DHT22;32137;48.728;9.142;2023-02-28T02:40:22;-1.70;99.90
46438;DHT22;32137;48.728;9.142;2023-02-28T02:43:01;-1.70;99.90
46438;DHT22;32137;48.728;9.142;2023-02-28T02:46:33;-1.70;99.90
46438;DHT22;32137;48.728;9.142;2023-02-28T02:48:30;-1.70;99.90
46438;DHT22;32137;48.728;9.142;2023-02-28T02:51:00;-1.60;99.90
46438;DHT22;32137;48.728;9.142;2023-02-28T02:54:22;-1.60;99.90
46438;DHT22;32137;48.728;9.142;2023-02-28T02:56:27;-1.60;99.90
46438;DHT22;32137;48.728;9.142;2023-02-28T02:58:58;-1.60;99.90
46438;DHT22;32137;48.728;9.142;2023-02-28T03:01:26;-1.50;99.90
46438;DHT22;32137;48.728;9.142;2023-02-28T03:03:59;-1.50;99.90
46438;DHT22;32137;48.728;9.142;2023-02-28T03:06:26;-1.50;99.90
46438;DHT22;32137;48.728;9.142;2023-02-28T03:08:52;-1.50;99.90
46438;DHT22;32137;48.728;9.142;2023-02-28T03:11:18;-1.50;99.90
46438;DHT22;32137;48.728;9.142;2023-02-28T03:19:03;-1.50;99.90
46438;DHT22;32137;48.728;9.142;2023-02-28T03:21:44;-1.50;99.90
46438;DHT22;32137;48.728;9.142;2023-02-28T03:26:43;-1.50;99.90
46438;DHT22;32137;48.728;9.142;2023-02-28T03:29:34;-1.50;99.90
46438;DHT22;32137;48.728;9.142;2023-02-28T03:32:08;-1.50;99.90
46438;DHT22;32137;48.728;9.142;2023-02-28T03:34:45;-1.50;99.90
46438;DHT22;32137;48.728;9.142;2023-02-28T03:37:16;-1.50;99.90
46438;DHT22;32137;48.728;9.142;2023-02-28T03:39:47;-1.50;99.90
46438;DHT22;32137;48.728;9.142;2023-02-28T03:42:22;-1.40;99.90
46438;DHT22;32137;48.728;9.142;2023-02-28T03:45:01;-1.40;99.90
46438;DHT22;32137;48.728;9.142;2023-02-28T03:50:25;-1.40;99.90
46438;DHT22;32137;48.728;9.142;2023-02-28T03:53:03;-1.40;99.90
46438;DHT22;32137;48.728;9.142;2023-02-28T03:55:36;-1.40;99.90
46438;DHT22;32137;48.728;9.142;2023-02-28T03:58:24;-1.30;99.90
46438;DHT22;32137;48.728;9.142;2023-02-28T04:01:00;-1.30;99.90
46438;DHT22;32137;48.728;9.142;2023-02-28T04:03:33;-1.30;99.90
46438;DHT22;32137;48.728;9.142;2023-02-28T04:05:59;-1.30;99.90
46438;DHT22;32137;48.728;9.142;2023-02-28T04:08:24;-1.30;99.90
46438;DHT22;32137;48.728;9.142;2023-02-28T04:10:58;-1.30;99.90
46438;DHT22;32137;48.728;9.142;2023-02-28T04:13:26;-1.20;99.90
46438;DHT22;32137;48.728;9.142;2023-02-28T04:15:51;-1.30;99.90
46438;DHT22;32137;48.728;9.142;2023-02-28T04:18:17;-1.20;99.90
46438;DHT22;32137;48.728;9.142;2023-02-28T04:20:42;-1.20;99.90
46438;DHT22;32137;48.728;9.142;2023-02-28T04:23:08;-1.20;99.90
46438;DHT22;32137;48.728;9.142;2023-02-28T04:25:34;-1.20;99.90
46438;DHT22;32137;48.728;9.142;2023-02-28T04:27:59;-1.20;99.90
46438;DHT22;32137;48.728;9.142;2023-02-28T04:30:25;-1.10;99.90
46438;DHT22;32137;48.728;9.142;2023-02-28T04:32:51;-1.10;99.90
46438;DHT22;32137;48.728;9.142;2023-02-28T04:35:16;-1.10;99.90
46438;DHT22;32137;48.728;9.142;2023-02-28T04:37:42;-1.10;99.90
46438;DHT22;32137;48.728;9.142;2023-02-28T04:40:08;-1.10;99.90
46438;DHT22;32137;48.728;9.142;2023-02-28T04:42:33;-1.10;99.90
46438;DHT22;32137;48.728;9.142;2023-02-28T04:45:02;-1.10;99.90
46438;DHT22;32137;48.728;9.142;2023-02-28T04:47:28;-1.10;99.90
46438;DHT22;32137;48.728;9.142;2023-02-28T04:49:54;-1.10;99.90
46438;DHT22;32137;48.728;9.142;2023-02-28T04:52:19;-1.10;99.90
46438;DHT22;32137;48.728;9.142;2023-02-28T04:54:45;-1.10;99.90
46438;DHT22;32137;48.728;9.142;2023-02-28T04:57:10;-1.10;99.90
46438;DHT22;32137;48.728;9.142;2023-02-28T04:59:36;-1.10;99.90
46438;DHT22;32137;48.728;9.142;2023-02-28T05:02:01;-1.10;99.90
46438;DHT22;32137;48.728;9.142;2023-02-28T05:04:34;-1.10;99.90
46438;DHT22;32137;48.728;9.142;2023-02-28T05:07:01;-1.10;99.90
46438;DHT22;32137;48.728;9.142;2023-02-28T05:09:26;-1.10;99.90
46438;DHT22;32137;48.728;9.142;2023-02-28T05:11:53;-1.10;99.90
46438;DHT22;32137;48.728;9.142;2023-02-28T05:14:19;-1.10;99.90
46438;DHT22;32137;48.728;9.142;2023-02-28T05:16:44;-1.10;99.90
46438;DHT22;32137;48.728;9.142;2023-02-28T05:19:10;-1.10;99.90
46438;DHT22;32137;48.728;9.142;2023-02-28T05:21:38;-1.10;99.90
46438;DHT22;32137;48.728;9.142;2023-02-28T05:24:08;-1.10;99.90
46438;DHT22;32137;48.728;9.142;2023-02-28T05:26:36;-1.10;99.90
46438;DHT22;32137;48.728;9.142;2023-02-28T05:29:02;-1.10;99.90
46438;DHT22;32137;48.728;9.142;2023-02-28T05:31:27;-1.00;99.90
46438;DHT22;32137;48.728;9.142;2023-02-28T05:33:53;-1.10;99.90
46438;DHT22;32137;48.728;9.142;2023-02-28T05:36:19;-1.00;99.90
46438;DHT22;32137;48.728;9.142;2023-02-28T05:38:49;-1.00;99.90
46438;DHT22;32137;48.728;9.142;2023-02-28T05:41:16;-1.00;99.90
46438;DHT22;32137;48.728;9.142;2023-02-28T05:43:42;-1.00;99.90
46438;DHT22;32137;48.728;9.142;2023-02-28T05:46:10;-1.00;99.90
46438;DHT22;32137;48.728;9.142;2023-02-28T05:48:36;-1.00;99.90
46438;DHT22;32137;48.728;9.142;2023-02-28T05:51:03;-1.00;99.90
46438;DHT22;32137;48.728;9.142;2023-02-28T05:53:29;-1.00;99.90
46438;DHT22;32137;48.728;9.142;2023-02-28T05:55:55;-1.00;99.90
46438;DHT22;32137;48.728;9.142;2023-02-28T05:58:21;-1.00;99.90
46438;DHT22;32137;48.728;9.142;2023-02-28T06:00:48;-1.00;99.90
46438;DHT22;32137;48.728;9.142;2023-02-28T06:03:13;-1.00;99.90
46438;DHT22;32137;48.728;9.142;2023-02-28T06:05:39;-1.00;99.90
46438;DHT22;32137;48.728;9.142;2023-02-28T06:08:05;-1.00;99.90
46438;DHT22;32137;48.728;9.142;2023-02-28T06:10:33;-1.00;99.90
46438;DHT22;32137;48.728;9.142;2023-02-28T06:13:03;-1.00;99.90
46438;DHT22;32137;48.728;9.142;2023-02-28T06:15:29;-0.90;99.90
46438;DHT22;32137;48.728;9.142;2023-02-28T06:17:55;-0.90;99.90
46438;DHT22;32137;48.728;9.142;2023-02-28T06:20:25;-0.90;99.90
46438;DHT22;32137;48.728;9.142;2023-02-28T06:22:54;-0.90;99.90
46438;DHT22;32137;48.728;9.142;2023-02-28T06:25:21;-1.00;99.90
46438;DHT22;32137;48.728;9.142;2023-02-28T06:27:47;-1.00;99.90
46438;DHT22;32137;48.728;9.142;2023-02-28T06:30:13;-1.00;99.90
46438;DHT22;32137;48.728;9.142;2023-02-28T06:32:39;-1.00;99.90
46438;DHT22;32137;48.728;9.142;2023-02-28T06:35:05;-1.00;99.90
46438;DHT22;32137;48.728;9.142;2023-02-28T06:37:31;-1.00;99.90
46438;DHT22;32137;48.728;9.142;2023-02-28T06:39:57;-1.00;99.90
46438;DHT22;32137;48.728;9.142;2023-02-28T06:42:23;-0.90;99.90
46438;DHT22;32137;48.728;9.142;2023-02-28T06:44:57;-0.90;99.90
46438;DHT22;32137;48.728;9.142;2023-02-28T06:47:23;-0.90;99.90
46438;DHT22;32137;48.728;9.142;2023-02-28T06:49:48;-0.90;99.90
46438;DHT22;32137;48.728;9.142;2023-02-28T06:52:14;-0.90;99.90
46438;DHT22;32137;48.728;9.142;2023-02-28T06:54:40;-0.80;99.90
46438;DHT22;32137;48.728;9.142;2023-02-28T06:57:05;-0.80;99.90
46438;DHT22;32137;48.728;9.142;2023-02-28T06:59:31;-0.80;99.90
46438;DHT22;32137;48.728;9.142;2023-02-28T07:01:56;-0.80;99.90
46438;DHT22;32137;48.728;9.142;2023-02-28T07:04:22;-0.80;99.90
46438;DHT22;32137;48.728;9.142;2023-02-28T07:06:48;-0.80;99.90
46438;DHT22;32137;48.728;9.142;2023-02-28T07:09:13;-0.80;99.90
46438;DHT22;32137;48.728;9.142;2023-02-28T07:11:40;-0.80;99.90
46438;DHT22;32137;48.728;9.142;2023-02-28T07:14:06;-0.80;99.90
46438;DHT22;32137;48.728;9.142;2023-02-28T07:16:31;-0.80;99.90
46438;DHT22;32137;48.728;9.142;2023-02-28T07:18:57;-0.70;99.90
46438;DHT22;32137;48.728;9.142;2023-02-28T07:21:23;-0.70;99.90
46438;DHT22;32137;48.728;9.142;2023-02-28T07:23:49;-0.70;99.90
46438;DHT22;32137;48.728;9.142;2023-02-28T07:26:16;-0.70;99.90
46438;DHT22;32137;48.728;9.142;2023-02-28T07:28:43;-0.60;99.90
46438;DHT22;32137;48.728;9.142;2023-02-28T07:31:10;-0.60;99.90
46438;DHT22;32137;48.728;9.142;2023-02-28T07:33:36;-0.60;99.90
46438;DHT22;32137;48.728;9.142;2023-02-28T07:36:04;-0.60;99.90
46438;DHT22;32137;48.728;9.142;2023-02-28T07:38:31;-0.60;99.90
46438;DHT22;32137;48.728;9.142;2023-02-28T07:40:56;-0.60;99.90
46438;DHT22;32137;48.728;9.142;2023-02-28T07:43:22;-0.60;99.90
46438;DHT22;32137;48.728;9.142;2023-02-28T07:45:47;-0.50;99.90
46438;DHT22;32137;48.728;9.142;2023-02-28T07:48:13;-0.50;99.90
46438;DHT22;32137;48.728;9.142;2023-02-28T07:50:38;-0.50;99.90
46438;DHT22;32137;48.728;9.142;2023-02-28T07:53:04;-0.50;99.90
46438;DHT22;32137;48.728;9.142;2023-02-28T07:55:29;-0.50;99.90
46438;DHT22;32137;48.728;9.142;2023-02-28T07:57:57;-0.50;99.90
46438;DHT22;32137;48.728;9.142;2023-02-28T08:00:23;-0.40;99.90
46438;DHT22;32137;48.728;9.142;2023-02-28T08:02:48;-0.50;99.90
46438;DHT22;32137;48.728;9.142;2023-02-28T08:05:14;-0.50;99.90
46438;DHT22;32137;48.728;9.142;2023-02-28T08:07:39;-0.40;99.90
46438;DHT22;32137;48.728;9.142;2023-02-28T08:10:05;-0.40;99.90
46438;DHT22;32137;48.728;9.142;2023-02-28T08:12:31;-0.40;99.90
46438;DHT22;32137;48.728;9.142;2023-02-28T08:14:57;-0.40;99.90
46438;DHT22;32137;48.728;9.142;2023-02-28T08:17:22;-0.30;99.90
46438;DHT22;32137;48.728;9.142;2023-02-28T08:19:49;-0.30;99.90
46438;DHT22;32137;48.728;9.142;2023-02-28T08:22:14;-0.20;99.90
46438;DHT22;32137;48.728;9.142;2023-02-28T08:24:41;-0.20;99.90
46438;DHT22;32137;48.728;9.142;2023-02-28T08:27:08;-0.10;99.90
46438;DHT22;32137;48.728;9.142;2023-02-28T08:29:33;-0.10;99.90
46438;DHT22;32137;48.728;9.142;2023-02-28T08:31:59;0.00;99.90
46438;DHT22;32137;48.728;9.142;2023-02-28T08:34:24;-0.10;99.90
46438;DHT22;32137;48.728;9.142;2023-02-28T08:36:50;0.00;99.90
46438;DHT22;32137;48.728;9.142;2023-02-28T08:39:16;0.00;99.90
46438;DHT22;32137;48.728;9.142;2023-02-28T08:41:42;0.00;99.90
46438;DHT22;32137;48.728;9.142;2023-02-28T08:44:07;0.10;99.90
46438;DHT22;32137;48.728;9.142;2023-02-28T08:46:33;0.10;99.90
46438;DHT22;32137;48.728;9.142;2023-02-28T08:48:59;0.10;99.90
46438;DHT22;32137;48.728;9.142;2023-02-28T08:51:26;0.10;99.90
46438;DHT22;32137;48.728;9.142;2023-02-28T08:53:54;0.20;99.90
46438;DHT22;32137;48.728;9.142;2023-02-28T08:56:20;0.10;99.90
46438;DHT22;32137;48.728;9.142;2023-02-28T08:58:47;0.10;99.90
46438;DHT22;32137;48.728;9.142;2023-02-28T09:01:18;0.10;99.90
46438;DHT22;32137;48.728;9.142;2023-02-28T09:03:45;0.10;99.90
46438;DHT22;32137;48.728;9.142;2023-02-28T09:06:12;0.20;99.90
46438;DHT22;32137;48.728;9.142;2023-02-28T09:08:38;0.20;99.90
46438;DHT22;32137;48.728;9.142;2023-02-28T10:16:24;1.40;99.90
46438;DHT22;32137;48.728;9.142;2023-02-28T10:24:03;1.50;99.90
46438;DHT22;32137;48.728;9.142;2023-02-28T10:26:31;1.50;99.90
46438;DHT22;32137;48.728;9.142;2023-02-28T10:28:57;1.50;99.90
46438;DHT22;32137;48.728;9.142;2023-02-28T10:31:23;1.60;99.90
46438;DHT22;32137;48.728;9.142;2023-02-28T10:33:48;1.60;99.90
46438;DHT22;32137;48.728;9.142;2023-02-28T10:36:18;1.60;99.90
46438;DHT22;32137;48.728;9.142;2023-02-28T10:38:45;1.70;99.90
46438;DHT22;32137;48.728;9.142;2023-02-28T10:41:16;1.80;99.90
46438;DHT22;32137;48.728;9.142;2023-02-28T10:43:51;1.90;99.90
46438;DHT22;32137;48.728;9.142;2023-02-28T10:46:19;2.00;99.90
46438;DHT22;32137;48.728;9.142;2023-02-28T10:49:01;2.10;99.90
46438;DHT22;32137;48.728;9.142;2023-02-28T10:51:35;2.20;99.90
46438;DHT22;32137;48.728;9.142;2023-02-28T10:54:02;2.20;99.90
46438;DHT22;32137;48.728;9.142;2023-02-28T10:56:29;2.30;99.90
46438;DHT22;32137;48.728;9.142;2023-02-28T11:02:28;2.40;99.90
46438;DHT22;32137;48.728;9.142;2023-02-28T11:04:54;2.50;99.90
46438;DHT22;32137;48.728;9.142;2023-02-28T11:07:22;2.50;99.90
46438;DHT22;32137;48.728;9.142;2023-02-28T11:09:50;2.50;99.90
46438;DHT22;32137;48.728;9.142;2023-02-28T11:12:32;2.50;99.90
46438;DHT22;32137;48.728;9.142;2023-02-28T11:15:02;2.70;99.90
46438;DHT22;32137;48.728;9.142;2023-02-28T11:17:31;2.80;99.90
46438;DHT22;32137;48.728;9.142;2023-02-28T11:20:00;3.00;99.90
46438;DHT22;32137;48.728;9.142;2023-02-28T11:22:32;3.00;99.90
46438;DHT22;32137;48.728;9.142;2023-02-28T11:25:02;3.10;99.90
46438;DHT22;32137;48.728;9.142;2023-02-28T11:29:58;3.00;99.90
46438;DHT22;32137;48.728;9.142;2023-02-28T11:32:30;2.90;99.90
46438;DHT22;32137;48.728;9.142;2023-02-28T11:35:13;2.90;99.90
46438;DHT22;32137;48.728;9.142;2023-02-28T11:37:40;2.90;99.90
46438;DHT22;32137;48.728;9.142;2023-02-28T11:40:15;3.00;99.90
46438;DHT22;32137;48.728;9.142;2023-02-28T11:42:50;3.10;99.90
46438;DHT22;32137;48.728;9.142;2023-02-28T11:45:40;3.20;99.90
46438;DHT22;32137;48.728;9.142;2023-02-28T11:48:32;3.20;99.90
46438;DHT22;32137;48.728;9.142;2023-02-28T11:56:47;2.90;99.90
46438;DHT22;32137;48.728;9.142;2023-02-28T12:10:25;3.20;99.90
46438;DHT22;32137;48.728;9.142;2023-02-28T12:13:07;3.30;99.90
46438;DHT22;32137;48.728;9.142;2023-02-28T12:18:39;4.00;99.90
46438;DHT22;32137;48.728;9.142;2023-02-28T12:26:45;5.10;99.90
46438;DHT22;32137;48.728;9.142;2023-02-28T12:29:29;5.20;99.90
46438;DHT22;32137;48.728;9.142;2023-02-28T12:31:59;5.30;99.90
46438;DHT22;32137;48.728;9.142;2023-02-28T12:34:33;5.40;99.90
46438;DHT22;32137;48.728;9.142;2023-02-28T12:37:03;5.40;99.90
46438;DHT22;32137;48.728;9.142;2023-02-28T12:39:34;5.20;99.90
46438;DHT22;32137;48.728;9.142;2023-02-28T12:42:24;5.10;99.90
46438;DHT22;32137;48.728;9.142;2023-02-28T12:44:56;4.90;99.90
46438;DHT22;32137;48.728;9.142;2023-02-28T12:47:23;4.90;99.90
46438;DHT22;32137;48.728;9.142;2023-02-28T12:52:23;4.80;99.90
46438;DHT22;32137;48.728;9.142;2023-02-28T12:54:58;4.90;99.90
46438;DHT22;32137;48.728;9.142;2023-02-28T12:57:31;5.10;99.90
46438;DHT22;32137;48.728;9.142;2023-02-28T13:00:03;5.40;99.90
46438;DHT22;32137;48.728;9.142;2023-02-28T13:08:20;5.60;99.90
46438;DHT22;32137;48.728;9.142;2023-02-28T13:10:50;5.90;99.90
46438;DHT22;32137;48.728;9.142;2023-02-28T13:13:25;6.30;99.90
46438;DHT22;32137;48.728;9.142;2023-02-28T13:16:09;6.80;99.90
46438;DHT22;32137;48.728;9.142;2023-02-28T13:18:40;7.20;99.90
46438;DHT22;32137;48.728;9.142;2023-02-28T13:21:09;7.50;99.90
46438;DHT22;32137;48.728;9.142;2023-02-28T13:28:59;9.70;99.90
46438;DHT22;32137;48.728;9.142;2023-02-28T13:31:26;11.50;99.90
46438;DHT22;32137;48.728;9.142;2023-02-28T13:36:27;14.20;99.90
46438;DHT22;32137;48.728;9.142;2023-02-28T13:38:59;14.70;99.90
46438;DHT22;32137;48.728;9.142;2023-02-28T13:44:08;15.30;99.90
46438;DHT22;32137;48.728;9.142;2023-02-28T13:52:16;15.00;99.90
46438;DHT22;32137;48.728;9.142;2023-02-28T14:00:59;14.20;99.90
46438;DHT22;32137;48.728;9.142;2023-02-28T14:04:01;12.70;99.90
46438;DHT22;32137;48.728;9.142;2023-02-28T14:06:33;11.40;99.90
46438;DHT22;32137;48.728;9.142;2023-02-28T14:09:27;10.60;99.90
46438;DHT22;32137;48.728;9.142;2023-02-28T14:11:54;10.20;99.90
46438;DHT22;32137;48.728;9.142;2023-02-28T14:17:06;9.80;99.90
46438;DHT22;32137;48.728;9.142;2023-02-28T14:19:36;9.80;99.90
46438;DHT22;32137;48.728;9.142;2023-02-28T14:22:12;9.80;99.90
46438;DHT22;32137;48.728;9.142;2023-02-28T14:25:05;9.70;99.90
46438;DHT22;32137;48.728;9.142;2023-02-28T14:36:21;9.30;99.90
46438;DHT22;32137;48.728;9.142;2023-02-28T14:38:50;9.20;99.90
46438;DHT22;32137;48.728;9.142;2023-02-28T14:43:57;9.10;99.90
46438;DHT22;32137;48.728;9.142;2023-02-28T14:46:28;9.00;99.90
46438;DHT22;32137;48.728;9.142;2023-02-28T14:48:55;9.00;99.90
46438;DHT22;32137;48.728;9.142;2023-02-28T14:51:22;9.00;99.90
46438;DHT22;32137;48.728;9.142;2023-02-28T14:53:59;8.80;99.90
46438;DHT22;32137;48.728;9.142;2023-02-28T14:56:37;8.70;99.90
46438;DHT22;32137;48.728;9.142;2023-02-28T14:59:03;8.60;99.90
46438;DHT22;32137;48.728;9.142;2023-02-28T15:01:29;8.60;99.90
46438;DHT22;32137;48.728;9.142;2023-02-28T15:04:00;8.50;99.90
46438;DHT22;32137;48.728;9.142;2023-02-28T15:06:26;8.50;99.90
46438;DHT22;32137;48.728;9.142;2023-02-28T15:09:14;8.40;99.90
46438;DHT22;32137;48.728;9.142;2023-02-28T15:11:40;8.30;99.90
46438;DHT22;32137;48.728;9.142;2023-02-28T15:14:06;8.30;99.90
46438;DHT22;32137;48.728;9.142;2023-02-28T15:16:37;8.20;99.90
46438;DHT22;32137;48.728;9.142;2023-02-28T15:19:11;8.00;99.90
46438;DHT22;32137;48.728;9.142;2023-02-28T15:21:43;7.90;99.90
46438;DHT22;32137;48.728;9.142;2023-02-28T15:27:00;7.90;99.90
46438;DHT22;32137;48.728;9.142;2023-02-28T15:29:29;7.90;99.90
46438;DHT22;32137;48.728;9.142;2023-02-28T15:32:05;7.80;99.90
46438;DHT22;32137;48.728;9.142;2023-02-28T15:34:38;7.60;99.90
46438;DHT22;32137;48.728;9.142;2023-02-28T15:43:17;7.50;99.90
46438;DHT22;32137;48.728;9.142;2023-02-28T15:46:02;7.40;99.90
46438;DHT22;32137;48.728;9.142;2023-02-28T15:48:37;7.30;99.90
46438;DHT22;32137;48.728;9.142;2023-02-28T15:53:35;7.20;99.90
46438;DHT22;32137;48.728;9.142;2023-02-28T15:56:25;7.00;99.90
46438;DHT22;32137;48.728;9.142;2023-02-28T15:59:02;6.80;99.90
46438;DHT22;32137;48.728;9.142;2023-02-28T16:01:34;6.60;99.90
46438;DHT22;32137;48.728;9.142;2023-02-28T16:04:04;6.50;99.90
46438;DHT22;32137;48.728;9.142;2023-02-28T16:09:06;6.30;99.90
46438;DHT22;32137;48.728;9.142;2023-02-28T16:11:35;6.20;99.90
46438;DHT22;32137;48.728;9.142;2023-02-28T16:14:02;6.00;99.90
46438;DHT22;32137;48.728;9.142;2023-02-28T16:16:28;5.90;99.90
46438;DHT22;32137;48.728;9.142;2023-02-28T16:18:54;5.80;99.90
46438;DHT22;32137;48.728;9.142;2023-02-28T16:21:20;5.70;99.90
46438;DHT22;32137;48.728;9.142;2023-02-28T16:23:46;5.60;99.90
46438;DHT22;32137;48.728;9.142;2023-02-28T16:26:20;5.50;99.90
46438;DHT22;32137;48.728;9.142;2023-02-28T16:28:46;5.40;99.90
46438;DHT22;32137;48.728;9.142;2023-02-28T16:31:12;5.40;99.90
46438;DHT22;32137;48.728;9.142;2023-02-28T16:33:43;5.30;99.90
46438;DHT22;32137;48.728;9.142;2023-02-28T16:36:14;5.30;99.90
46438;DHT22;32137;48.728;9.142;2023-02-28T16:38:40;5.30;99.90
46438;DHT22;32137;48.728;9.142;2023-02-28T16:41:05;5.20;99.90
46438;DHT22;32137;48.728;9.142;2023-02-28T16:43:31;5.10;99.90
46438;DHT22;32137;48.728;9.142;2023-02-28T16:45:58;5.00;99.90
46438;DHT22;32137;48.728;9.142;2023-02-28T16:48:24;5.00;99.90
46438;DHT22;32137;48.728;9.142;2023-02-28T16:50:51;4.90;99.90
46438;DHT22;32137;48.728;9.142;2023-02-28T16:53:16;4.80;99.90
46438;DHT22;32137;48.728;9.142;2023-02-28T16:55:42;4.70;99.90
46438;DHT22;32137;48.728;9.142;2023-02-28T16:58:15;4.60;99.90
46438;DHT22;32137;48.728;9.142;2023-02-28T17:00:41;4.60;99.90
46438;DHT22;32137;48.728;9.142;2023-02-28T17:03:25;4.50;99.90
46438;DHT22;32137;48.728;9.142;2023-02-28T17:05:51;4.50;99.90
46438;DHT22;32137;48.728;9.142;2023-02-28T17:08:17;4.40;99.90
46438;DHT22;32137;48.728;9.142;2023-02-28T17:10:43;4.30;99.90
46438;DHT22;32137;48.728;9.142;2023-02-28T17:13:09;4.30;99.90
46438;DHT22;32137;48.728;9.142;2023-02-28T17:15:35;4.20;99.90
46438;DHT22;32137;48.728;9.142;2023-02-28T17:18:01;4.20;99.90
46438;DHT22;32137;48.728;9.142;2023-02-28T17:20:27;4.10;99.90
46438;DHT22;32137;48.728;9.142;2023-02-28T17:22:53;4.00;99.90
46438;DHT22;32137;48.728;9.142;2023-02-28T17:25:20;4.00;99.90
46438;DHT22;32137;48.728;9.142;2023-02-28T17:27:46;4.00;99.90
46438;DHT22;32137;48.728;9.142;2023-02-28T17:32:45;3.90;99.90
46438;DHT22;32137;48.728;9.142;2023-02-28T17:35:11;3.80;99.90
46438;DHT22;32137;48.728;9.142;2023-02-28T17:37:37;3.80;99.90
46438;DHT22;32137;48.728;9.142;2023-02-28T17:40:03;3.80;99.90
46438;DHT22;32137;48.728;9.142;2023-02-28T17:42:29;3.70;99.90
46438;DHT22;32137;48.728;9.142;2023-02-28T17:44:54;3.60;99.90
46438;DHT22;32137;48.728;9.142;2023-02-28T17:47:20;3.60;99.90
46438;DHT22;32137;48.728;9.142;2023-02-28T17:49:45;3.60;99.90
46438;DHT22;32137;48.728;9.142;2023-02-28T17:52:11;3.50;99.90
46438;DHT22;32137;48.728;9.142;2023-02-28T17:54:37;3.50;99.90
46438;DHT22;32137;48.728;9.142;2023-02-28T17:57:02;3.50;99.90
46438;DHT22;32137;48.728;9.142;2023-02-28T17:59:28;3.40;99.90
46438;DHT22;32137;48.728;9.142;2023-02-28T18:02:01;3.40;99.90
46438;DHT22;32137;48.728;9.142;2023-02-28T18:04:27;3.40;99.90
46438;DHT22;32137;48.728;9.142;2023-02-28T18:06:53;3.30;99.90
46438;DHT22;32137;48.728;9.142;2023-02-28T18:09:21;3.30;99.90
46438;DHT22;32137;48.728;9.142;2023-02-28T18:11:47;3.20;99.90
46438;DHT22;32137;48.728;9.142;2023-02-28T18:14:17;3.20;99.90
46438;DHT22;32137;48.728;9.142;2023-02-28T18:16:44;3.20;99.90
46438;DHT22;32137;48.728;9.142;2023-02-28T18:19:11;3.20;99.90
46438;DHT22;32137;48.728;9.142;2023-02-28T18:21:43;3.20;99.90
46438;DHT22;32137;48.728;9.142;2023-02-28T18:24:09;3.20;99.90
46438;DHT22;32137;48.728;9.142;2023-02-28T18:26:36;3.10;99.90
46438;DHT22;32137;48.728;9.142;2023-02-28T18:29:03;3.10;99.90
46438;DHT22;32137;48.728;9.142;2023-02-28T18:34:50;3.10;99.90
46438;DHT22;32137;48.728;9.142;2023-02-28T18:37:16;3.00;99.90
46438;DHT22;32137;48.728;9.142;2023-02-28T18:39:43;3.00;99.90
46438;DHT22;32137;48.728;9.142;2023-02-28T18:42:08;2.90;99.90
46438;DHT22;32137;48.728;9.142;2023-02-28T18:44:36;2.90;99.90
46438;DHT22;32137;48.728;9.142;2023-02-28T18:47:02;2.90;99.90
46438;DHT22;32137;48.728;9.142;2023-02-28T18:49:27;2.90;99.90
46438;DHT22;32137;48.728;9.142;2023-02-28T18:51:53;2.90;99.90
46438;DHT22;32137;48.728;9.142;2023-02-28T18:54:19;2.80;99.90
46438;DHT22;32137;48.728;9.142;2023-02-28T18:56:44;2.80;99.90
46438;DHT22;32137;48.728;9.142;2023-02-28T18:59:11;2.80;99.90